sensor_id;sensor_type;location;lat;lon;timestamp;temperature;humidity
9486;DHT22;4781;48.776;9.200;2023-05-16T00:00:12;12.10;99.90
9486;DHT22;4781;48.776;9.200;2023-05-16T00:02:40;12.00;99.90
9486;DHT22;4781;48.776;9.200;2023-05-16T00:05:08;12.00;99.90
9486;DHT22;4781;48.776;9.200;2023-05-16T00:07:37;12.00;99.90
9486;DHT22;4781;48.776;9.200;2023-05-16T00:10:05;12.00;99.90
9486;DHT22;4781;48.776;9.200;2023-05-16T00:12:33;12.00;99.90
9486;DHT22;4781;48.776;9.200;2023-05-16T00:15:02;12.00;99.90
9486;DHT22;4781;48.776;9.200;2023-05-16T00:17:35;11.90;99.90
9486;DHT22;4781;48.776;9.200;2023-05-16T00:20:03;11.90;99.90
9486;DHT22;4781;48.776;9.200;2023-05-16T00:22:33;11.90;99.90
9486;DHT22;4781;48.776;9.200;2023-05-16T00:25:00;11.90;99.90
9486;DHT22;4781;48.776;9.200;2023-05-16T00:27:28;12.00;99.90
9486;DHT22;4781;48.776;9.200;2023-05-16T00:29:59;11.90;99.90
9486;DHT22;4781;48.776;9.200;2023-05-16T00:32:27;12.00;99.90
9486;DHT22;4781;48.776;9.200;2023-05-16T00:34:55;12.00;99.90
9486;DHT22;4781;48.776;9.200;2023-05-16T00:37:22;12.00;99.90
9486;DHT22;4781;48.776;9.200;2023-05-16T00:39:50;12.00;99.90
9486;DHT22;4781;48.776;9.200;2023-05-16T00:42:21;12.00;99.90
9486;DHT22;4781;48.776;9.200;2023-05-16T00:44:48;12.00;99.90
9486;DHT22;4781;48.776;9.200;2023-05-16T00:47:16;12.00;99.90
9486;DHT22;4781;48.776;9.200;2023-05-16T00:49:44;12.00;99.90
9486;DHT22;4781;48.776;9.200;2023-05-16T00:52:11;12.00;99.90
9486;DHT22;4781;48.776;9.200;2023-05-16T00:54:39;12.10;99.90
9486;DHT22;4781;48.776;9.200;2023-05-16T00:57:07;12.00;99.90
9486;DHT22;4781;48.776;9.200;2023-05-16T00:59:34;12.10;99.90
9486;DHT22;4781;48.776;9.200;2023-05-16T01:02:02;12.10;99.90
9486;DHT22;4781;48.776;9.200;2023-05-16T01:04:30;12.00;99.90
9486;DHT22;4781;48.776;9.200;2023-05-16T01:06:58;12.00;99.90
9486;DHT22;4781;48.776;9.200;2023-05-16T01:09:26;12.00;99.90
9486;DHT22;4781;48.776;9.200;2023-05-16T01:12:13;12.00;99.90
9486;DHT22;4781;48.776;9.200;2023-05-16T01:17:54;12.00;99.90
9486;DHT22;4781;48.776;9.200;2023-05-16T01:20:42;12.00;99.90
9486;DHT22;4781;48.776;9.200;2023-05-16T01:23:29;11.90;99.90
9486;DHT22;4781;48.776;9.200;2023-05-16T01:26:14;11.90;99.90
9486;DHT22;4781;48.776;9.200;2023-05-16T01:28:44;11.80;99.90
9486;DHT22;4781;48.776;9.200;2023-05-16T01:31:12;11.80;99.90
9486;DHT22;4781;48.776;9.200;2023-05-16T01:33:40;11.80;99.90
9486;DHT22;4781;48.776;9.200;2023-05-16T01:36:20;11.80;99.90
9486;DHT22;4781;48.776;9.200;2023-05-16T01:41:52;11.80;99.90
9486;DHT22;4781;48.776;9.200;2023-05-16T01:44:32;11.70;99.90
9486;DHT22;4781;48.776;9.200;2023-05-16T01:47:04;11.70;99.90
9486;DHT22;4781;48.776;9.200;2023-05-16T01:52:14;11.60;99.90
9486;DHT22;4781;48.776;9.200;2023-05-16T01:54:45;11.60;99.90
9486;DHT22;4781;48.776;9.200;2023-05-16T01:57:15;11.70;99.90
9486;DHT22;4781;48.776;9.200;2023-05-16T01:59:44;11.50;99.90
9486;DHT22;4781;48.776;9.200;2023-05-16T02:02:12;11.40;99.90
9486;DHT22;4781;48.776;9.200;2023-05-16T02:04:39;11.50;99.90
9486;DHT22;4781;48.776;9.200;2023-05-16T02:07:07;11.50;99.90
9486;DHT22;4781;48.776;9.200;2023-05-16T02:09:35;11.40;99.90
9486;DHT22;4781;48.776;9.200;2023-05-16T02:12:02;11.40;99.90
9486;DHT22;4781;48.776;9.200;2023-05-16T02:14:30;11.40;99.90
9486;DHT22;4781;48.776;9.200;2023-05-16T02:16:58;11.40;99.90
9486;DHT22;4781;48.776;9.200;2023-05-16T02:19:26;11.40;99.90
9486;DHT22;4781;48.776;9.200;2023-05-16T02:21:53;11.40;99.90
9486;DHT22;4781;48.776;9.200;2023-05-16T02:24:22;11.40;99.90
9486;DHT22;4781;48.776;9.200;2023-05-16T02:26:49;11.40;99.90
9486;DHT22;4781;48.776;9.200;2023-05-16T02:29:18;11.40;99.90
9486;DHT22;4781;48.776;9.200;2023-05-16T02:31:45;11.30;99.90
9486;DHT22;4781;48.776;9.200;2023-05-16T02:34:13;11.30;99.90
9486;DHT22;4781;48.776;9.200;2023-05-16T02:36:42;11.30;99.90
9486;DHT22;4781;48.776;9.200;2023-05-16T02:39:09;11.30;99.90
9486;DHT22;4781;48.776;9.200;2023-05-16T02:41:37;11.40;99.90
9486;DHT22;4781;48.776;9.200;2023-05-16T02:44:05;11.30;99.90
9486;DHT22;4781;48.776;9.200;2023-05-16T02:46:34;11.30;99.90
9486;DHT22;4781;48.776;9.200;2023-05-16T02:49:02;11.30;99.90
9486;DHT22;4781;48.776;9.200;2023-05-16T02:51:29;11.20;99.90
9486;DHT22;4781;48.776;9.200;2023-05-16T02:53:57;11.30;99.90
9486;DHT22;4781;48.776;9.200;2023-05-16T02:56:27;11.30;99.90
9486;DHT22;4781;48.776;9.200;2023-05-16T02:58:55;11.30;99.90
9486;DHT22;4781;48.776;9.200;2023-05-16T03:01:23;11.30;99.90
9486;DHT22;4781;48.776;9.200;2023-05-16T03:03:50;11.20;99.90
9486;DHT22;4781;48.776;9.200;2023-05-16T03:06:18;11.20;99.90
9486;DHT22;4781;48.776;9.200;2023-05-16T03:08:45;11.20;99.90
9486;DHT22;4781;48.776;9.200;2023-05-16T03:11:14;11.20;99.90
9486;DHT22;4781;48.776;9.200;2023-05-16T03:13:42;11.20;99.90
9486;DHT22;4781;48.776;9.200;2023-05-16T03:16:13;11.10;99.90
9486;DHT22;4781;48.776;9.200;2023-05-16T03:18:42;11.10;99.90
9486;DHT22;4781;48.776;9.200;2023-05-16T03:21:10;11.10;99.90
9486;DHT22;4781;48.776;9.200;2023-05-16T03:23:38;11.10;99.90
9486;DHT22;4781;48.776;9.200;2023-05-16T03:26:06;11.00;99.90
9486;DHT22;4781;48.776;9.200;2023-05-16T03:28:34;11.00;99.90
9486;DHT22;4781;48.776;9.200;2023-05-16T03:31:01;11.00;99.90
9486;DHT22;4781;48.776;9.200;2023-05-16T03:33:29;11.00;99.90
9486;DHT22;4781;48.776;9.200;2023-05-16T03:35:57;10.90;99.90
9486;DHT22;4781;48.776;9.200;2023-05-16T03:38:24;10.90;99.90
9486;DHT22;4781;48.776;9.200;2023-05-16T03:40:52;10.80;99.90
9486;DHT22;4781;48.776;9.200;2023-05-16T03:43:19;10.80;99.90
9486;DHT22;4781;48.776;9.200;2023-05-16T03:45:47;10.80;99.90
9486;DHT22;4781;48.776;9.200;2023-05-16T03:48:15;10.80;99.90
9486;DHT22;4781;48.776;9.200;2023-05-16T03:50:42;10.80;99.90
9486;DHT22;4781;48.776;9.200;2023-05-16T03:53:10;10.80;99.90
9486;DHT22;4781;48.776;9.200;2023-05-16T03:55:38;10.80;99.90
9486;DHT22;4781;48.776;9.200;2023-05-16T03:58:05;10.90;99.90
9486;DHT22;4781;48.776;9.200;2023-05-16T04:00:33;10.80;99.90
9486;DHT22;4781;48.776;9.200;2023-05-16T04:03:03;10.80;99.90
9486;DHT22;4781;48.776;9.200;2023-05-16T04:05:31;10.80;99.90
9486;DHT22;4781;48.776;9.200;2023-05-16T04:07:58;10.80;99.90
9486;DHT22;4781;48.776;9.200;2023-05-16T04:10:26;10.80;99.90
9486;DHT22;4781;48.776;9.200;2023-05-16T04:12:54;10.90;99.90
9486;DHT22;4781;48.776;9.200;2023-05-16T04:15:21;10.90;99.90
9486;DHT22;4781;48.776;9.200;2023-05-16T04:17:49;10.90;99.90
9486;DHT22;4781;48.776;9.200;2023-05-16T04:20:16;10.90;99.90
9486;DHT22;4781;48.776;9.200;2023-05-16T04:22:46;11.00;99.90
9486;DHT22;4781;48.776;9.200;2023-05-16T04:25:21;11.00;99.90
9486;DHT22;4781;48.776;9.200;2023-05-16T04:27:48;11.00;99.90
9486;DHT22;4781;48.776;9.200;2023-05-16T04:30:16;11.00;99.90
9486;DHT22;4781;48.776;9.200;2023-05-16T04:32:44;11.10;99.90
9486;DHT22;4781;48.776;9.200;2023-05-16T04:35:11;11.10;99.90
9486;DHT22;4781;48.776;9.200;2023-05-16T04:37:39;11.10;99.90
9486;DHT22;4781;48.776;9.200;2023-05-16T04:40:07;11.20;99.90
9486;DHT22;4781;48.776;9.200;2023-05-16T04:42:35;11.20;99.90
9486;DHT22;4781;48.776;9.200;2023-05-16T04:45:04;11.30;99.90
9486;DHT22;4781;48.776;9.200;2023-05-16T04:47:32;11.30;99.90
9486;DHT22;4781;48.776;9.200;2023-05-16T04:50:00;11.30;99.90
9486;DHT22;4781;48.776;9.200;2023-05-16T04:52:28;11.40;99.90
9486;DHT22;4781;48.776;9.200;2023-05-16T04:54:55;11.40;99.90
9486;DHT22;4781;48.776;9.200;2023-05-16T04:57:25;11.50;99.90
9486;DHT22;4781;48.776;9.200;2023-05-16T04:59:53;11.50;99.90
9486;DHT22;4781;48.776;9.200;2023-05-16T05:02:21;11.50;99.90
9486;DHT22;4781;48.776;9.200;2023-05-16T05:04:49;11.50;99.90
9486;DHT22;4781;48.776;9.200;2023-05-16T05:07:17;11.60;99.90
9486;DHT22;4781;48.776;9.200;2023-05-16T05:09:44;11.60;99.90
9486;DHT22;4781;48.776;9.200;2023-05-16T05:12:12;11.60;99.90
9486;DHT22;4781;48.776;9.200;2023-05-16T05:14:39;11.70;99.90
9486;DHT22;4781;48.776;9.200;2023-05-16T05:17:07;11.70;99.90
9486;DHT22;4781;48.776;9.200;2023-05-16T05:19:35;11.70;99.90
9486;DHT22;4781;48.776;9.200;2023-05-16T05:22:02;11.70;99.90
9486;DHT22;4781;48.776;9.200;2023-05-16T05:24:30;11.80;99.90
9486;DHT22;4781;48.776;9.200;2023-05-16T05:26:58;11.80;99.90
9486;DHT22;4781;48.776;9.200;2023-05-16T05:29:26;11.80;99.90
9486;DHT22;4781;48.776;9.200;2023-05-16T05:31:54;11.80;99.90
9486;DHT22;4781;48.776;9.200;2023-05-16T05:34:21;11.80;99.90
9486;DHT22;4781;48.776;9.200;2023-05-16T05:36:49;11.80;99.90
9486;DHT22;4781;48.776;9.200;2023-05-16T05:39:16;11.80;99.90
9486;DHT22;4781;48.776;9.200;2023-05-16T05:41:44;11.80;99.90
9486;DHT22;4781;48.776;9.200;2023-05-16T05:44:12;11.80;99.90
9486;DHT22;4781;48.776;9.200;2023-05-16T05:46:39;11.80;99.90
9486;DHT22;4781;48.776;9.200;2023-05-16T05:49:07;11.80;99.90
9486;DHT22;4781;48.776;9.200;2023-05-16T05:51:35;11.80;99.90
9486;DHT22;4781;48.776;9.200;2023-05-16T05:54:03;11.90;99.90
9486;DHT22;4781;48.776;9.200;2023-05-16T05:56:31;11.80;99.90
9486;DHT22;4781;48.776;9.200;2023-05-16T05:58:58;11.90;99.90
9486;DHT22;4781;48.776;9.200;2023-05-16T06:01:26;11.90;99.90
9486;DHT22;4781;48.776;9.200;2023-05-16T06:03:54;11.90;99.90
9486;DHT22;4781;48.776;9.200;2023-05-16T06:06:22;11.90;99.90
9486;DHT22;4781;48.776;9.200;2023-05-16T06:08:50;11.90;99.90
9486;DHT22;4781;48.776;9.200;2023-05-16T06:11:18;11.90;99.90
9486;DHT22;4781;48.776;9.200;2023-05-16T06:13:46;11.90;99.90
9486;DHT22;4781;48.776;9.200;2023-05-16T06:16:13;11.90;99.90
9486;DHT22;4781;48.776;9.200;2023-05-16T06:18:41;11.90;99.90
9486;DHT22;4781;48.776;9.200;2023-05-16T06:21:09;11.90;99.90
9486;DHT22;4781;48.776;9.200;2023-05-16T06:23:36;12.00;99.90
9486;DHT22;4781;48.776;9.200;2023-05-16T06:26:04;12.00;99.90
9486;DHT22;4781;48.776;9.200;2023-05-16T06:28:32;12.00;99.90
9486;DHT22;4781;48.776;9.200;2023-05-16T06:31:00;12.00;99.90
9486;DHT22;4781;48.776;9.200;2023-05-16T06:33:27;12.00;99.90
9486;DHT22;4781;48.776;9.200;2023-05-16T06:35:55;12.00;99.90
9486;DHT22;4781;48.776;9.200;2023-05-16T06:38:22;12.00;99.90
9486;DHT22;4781;48.776;9.200;2023-05-16T06:40:50;12.00;99.90
9486;DHT22;4781;48.776;9.200;2023-05-16T06:43:17;12.00;99.90
9486;DHT22;4781;48.776;9.200;2023-05-16T06:45:45;12.10;99.90
9486;DHT22;4781;48.776;9.200;2023-05-16T06:48:13;12.00;99.90
9486;DHT22;4781;48.776;9.200;2023-05-16T06:50:41;12.10;99.90
9486;DHT22;4781;48.776;9.200;2023-05-16T06:53:09;12.10;99.90
9486;DHT22;4781;48.776;9.200;2023-05-16T06:55:37;12.10;99.90
9486;DHT22;4781;48.776;9.200;2023-05-16T06:58:05;12.10;99.90
9486;DHT22;4781;48.776;9.200;2023-05-16T07:00:32;12.10;99.90
9486;DHT22;4781;48.776;9.200;2023-05-16T07:03:00;12.10;99.90
9486;DHT22;4781;48.776;9.200;2023-05-16T07:05:27;12.10;99.90
9486;DHT22;4781;48.776;9.200;2023-05-16T07:07:55;12.10;99.90
9486;DHT22;4781;48.776;9.200;2023-05-16T07:10:23;12.10;99.90
9486;DHT22;4781;48.776;9.200;2023-05-16T07:12:52;12.10;99.90
9486;DHT22;4781;48.776;9.200;2023-05-16T07:15:20;12.10;99.90
9486;DHT22;4781;48.776;9.200;2023-05-16T07:17:48;12.10;99.90
9486;DHT22;4781;48.776;9.200;2023-05-16T07:20:16;12.10;99.90
9486;DHT22;4781;48.776;9.200;2023-05-16T07:22:44;12.10;99.90
9486;DHT22;4781;48.776;9.200;2023-05-16T07:25:11;12.10;99.90
9486;DHT22;4781;48.776;9.200;2023-05-16T07:27:40;12.10;99.90
9486;DHT22;4781;48.776;9.200;2023-05-16T07:30:11;12.10;99.90
9486;DHT22;4781;48.776;9.200;2023-05-16T07:32:39;12.10;99.90
9486;DHT22;4781;48.776;9.200;2023-05-16T07:35:09;12.00;99.90
9486;DHT22;4781;48.776;9.200;2023-05-16T07:37:36;12.00;99.90
9486;DHT22;4781;48.776;9.200;2023-05-16T07:40:06;12.00;99.90
9486;DHT22;4781;48.776;9.200;2023-05-16T07:42:34;12.00;99.90
9486;DHT22;4781;48.776;9.200;2023-05-16T07:45:02;12.00;99.90
9486;DHT22;4781;48.776;9.200;2023-05-16T07:47:29;12.10;99.90
9486;DHT22;4781;48.776;9.200;2023-05-16T07:49:57;12.00;99.90
9486;DHT22;4781;48.776;9.200;2023-05-16T07:52:25;12.10;99.90
9486;DHT22;4781;48.776;9.200;2023-05-16T07:54:53;12.10;99.90
9486;DHT22;4781;48.776;9.200;2023-05-16T07:57:20;12.10;99.90
9486;DHT22;4781;48.776;9.200;2023-05-16T07:59:48;12.20;99.90
9486;DHT22;4781;48.776;9.200;2023-05-16T08:02:17;12.20;99.90
9486;DHT22;4781;48.776;9.200;2023-05-16T08:04:45;12.20;99.90
9486;DHT22;4781;48.776;9.200;2023-05-16T08:07:14;12.20;99.90
9486;DHT22;4781;48.776;9.200;2023-05-16T08:09:41;12.20;99.90
9486;DHT22;4781;48.776;9.200;2023-05-16T08:12:09;12.30;99.90
9486;DHT22;4781;48.776;9.200;2023-05-16T08:14:37;12.20;99.90
9486;DHT22;4781;48.776;9.200;2023-05-16T08:17:04;12.30;99.90
9486;DHT22;4781;48.776;9.200;2023-05-16T08:19:33;12.20;99.90
9486;DHT22;4781;48.776;9.200;2023-05-16T08:22:01;12.30;99.90
9486;DHT22;4781;48.776;9.200;2023-05-16T08:24:29;12.30;99.90
9486;DHT22;4781;48.776;9.200;2023-05-16T08:26:56;12.20;99.90
9486;DHT22;4781;48.776;9.200;2023-05-16T08:29:24;12.20;99.90
9486;DHT22;4781;48.776;9.200;2023-05-16T08:31:52;12.20;99.90
9486;DHT22;4781;48.776;9.200;2023-05-16T08:34:19;12.20;99.90
9486;DHT22;4781;48.776;9.200;2023-05-16T08:36:47;12.20;99.90
9486;DHT22;4781;48.776;9.200;2023-05-16T08:39:15;12.20;99.90
9486;DHT22;4781;48.776;9.200;2023-05-16T08:41:42;12.30;99.90
9486;DHT22;4781;48.776;9.200;2023-05-16T08:44:10;12.20;99.90
9486;DHT22;4781;48.776;9.200;2023-05-16T08:46:40;12.20;99.90
9486;DHT22;4781;48.776;9.200;2023-05-16T08:49:09;12.20;99.90
9486;DHT22;4781;48.776;9.200;2023-05-16T08:51:37;12.20;99.90
9486;DHT22;4781;48.776;9.200;2023-05-16T08:54:10;12.20;99.90
9486;DHT22;4781;48.776;9.200;2023-05-16T08:56:37;12.20;99.90
9486;DHT22;4781;48.776;9.200;2023-05-16T08:59:05;12.20;99.90
9486;DHT22;4781;48.776;9.200;2023-05-16T09:01:33;12.20;99.90
9486;DHT22;4781;48.776;9.200;2023-05-16T09:04:03;12.20;99.90
9486;DHT22;4781;48.776;9.200;2023-05-16T09:06:31;12.10;99.90
9486;DHT22;4781;48.776;9.200;2023-05-16T09:08:59;12.20;99.90
9486;DHT22;4781;48.776;9.200;2023-05-16T09:11:28;12.10;99.90
9486;DHT22;4781;48.776;9.200;2023-05-16T09:13:55;12.10;99.90
9486;DHT22;4781;48.776;9.200;2023-05-16T09:16:23;12.10;99.90
9486;DHT22;4781;48.776;9.200;2023-05-16T09:18:56;12.10;99.90
9486;DHT22;4781;48.776;9.200;2023-05-16T09:21:29;12.10;99.90
9486;DHT22;4781;48.776;9.200;2023-05-16T09:24:02;12.10;99.90
9486;DHT22;4781;48.776;9.200;2023-05-16T09:26:39;12.20;99.90
9486;DHT22;4781;48.776;9.200;2023-05-16T09:29:10;12.20;99.90
9486;DHT22;4781;48.776;9.200;2023-05-16T09:31:38;12.20;99.90
9486;DHT22;4781;48.776;9.200;2023-05-16T09:34:09;12.20;99.90
9486;DHT22;4781;48.776;9.200;2023-05-16T09:36:38;12.20;99.90
9486;DHT22;4781;48.776;9.200;2023-05-16T09:39:06;12.20;99.90
9486;DHT22;4781;48.776;9.200;2023-05-16T09:41:34;12.20;99.90
9486;DHT22;4781;48.776;9.200;2023-05-16T09:44:05;12.30;99.90
9486;DHT22;4781;48.776;9.200;2023-05-16T09:46:37;12.30;99.90
9486;DHT22;4781;48.776;9.200;2023-05-16T09:49:05;12.40;99.90
9486;DHT22;4781;48.776;9.200;2023-05-16T09:51:32;12.50;99.90
9486;DHT22;4781;48.776;9.200;2023-05-16T09:54:00;12.70;99.90
9486;DHT22;4781;48.776;9.200;2023-05-16T09:56:28;13.10;99.90
9486;DHT22;4781;48.776;9.200;2023-05-16T09:58:56;13.40;99.90
9486;DHT22;4781;48.776;9.200;2023-05-16T10:01:24;13.60;99.90
9486;DHT22;4781;48.776;9.200;2023-05-16T10:03:52;13.60;99.90
9486;DHT22;4781;48.776;9.200;2023-05-16T10:06:19;13.50;99.90
9486;DHT22;4781;48.776;9.200;2023-05-16T10:08:49;13.40;99.90
9486;DHT22;4781;48.776;9.200;2023-05-16T10:11:17;13.20;99.90
9486;DHT22;4781;48.776;9.200;2023-05-16T10:13:46;13.10;99.90
9486;DHT22;4781;48.776;9.200;2023-05-16T10:16:15;13.10;99.90
9486;DHT22;4781;48.776;9.200;2023-05-16T10:18:44;13.00;99.90
9486;DHT22;4781;48.776;9.200;2023-05-16T10:21:16;13.10;99.90
9486;DHT22;4781;48.776;9.200;2023-05-16T10:23:46;13.20;99.90
9486;DHT22;4781;48.776;9.200;2023-05-16T10:26:15;13.20;99.90
9486;DHT22;4781;48.776;9.200;2023-05-16T10:28:43;13.30;99.90
9486;DHT22;4781;48.776;9.200;2023-05-16T10:31:12;13.40;99.90
9486;DHT22;4781;48.776;9.200;2023-05-16T10:33:40;13.50;99.90
9486;DHT22;4781;48.776;9.200;2023-05-16T10:36:10;13.60;99.90
9486;DHT22;4781;48.776;9.200;2023-05-16T10:38:38;13.80;99.90
9486;DHT22;4781;48.776;9.200;2023-05-16T10:41:07;13.80;99.90
9486;DHT22;4781;48.776;9.200;2023-05-16T10:43:34;13.90;99.90
9486;DHT22;4781;48.776;9.200;2023-05-16T10:46:04;13.90;99.90
9486;DHT22;4781;48.776;9.200;2023-05-16T10:48:34;13.90;99.90
9486;DHT22;4781;48.776;9.200;2023-05-16T10:51:31;13.90;99.90
9486;DHT22;4781;48.776;9.200;2023-05-16T10:53:34;13.90;99.90
9486;DHT22;4781;48.776;9.200;2023-05-16T10:56:04;13.90;99.90
9486;DHT22;4781;48.776;9.200;2023-05-16T11:01:20;13.80;99.90
9486;DHT22;4781;48.776;9.200;2023-05-16T11:11:43;13.50;99.90
9486;DHT22;4781;48.776;9.200;2023-05-16T11:17:19;13.30;99.90
9486;DHT22;4781;48.776;9.200;2023-05-16T11:19:44;13.10;99.90
9486;DHT22;4781;48.776;9.200;2023-05-16T11:22:22;13.00;99.90
9486;DHT22;4781;48.776;9.200;2023-05-16T11:25:08;13.00;99.90
9486;DHT22;4781;48.776;9.200;2023-05-16T11:27:41;12.90;99.90
9486;DHT22;4781;48.776;9.200;2023-05-16T11:30:16;12.90;99.90
9486;DHT22;4781;48.776;9.200;2023-05-16T11:32:46;12.60;99.90
9486;DHT22;4781;48.776;9.200;2023-05-16T11:35:17;12.40;99.90
9486;DHT22;4781;48.776;9.200;2023-05-16T11:37:46;12.30;99.90
9486;DHT22;4781;48.776;9.200;2023-05-16T11:40:14;12.20;99.90
9486;DHT22;4781;48.776;9.200;2023-05-16T11:42:44;12.20;99.90
9486;DHT22;4781;48.776;9.200;2023-05-16T11:45:17;12.20;99.90
9486;DHT22;4781;48.776;9.200;2023-05-16T11:47:46;12.10;99.90
9486;DHT22;4781;48.776;9.200;2023-05-16T11:50:16;12.10;99.90
9486;DHT22;4781;48.776;9.200;2023-05-16T11:52:51;12.10;99.90
9486;DHT22;4781;48.776;9.200;2023-05-16T11:55:25;12.10;99.90
9486;DHT22;4781;48.776;9.200;2023-05-16T11:57:53;12.00;99.90
9486;DHT22;4781;48.776;9.200;2023-05-16T12:00:22;12.00;99.90
9486;DHT22;4781;48.776;9.200;2023-05-16T12:02:53;12.00;99.90
9486;DHT22;4781;48.776;9.200;2023-05-16T12:05:21;11.90;99.90
9486;DHT22;4781;48.776;9.200;2023-05-16T12:07:50;11.90;99.90
9486;DHT22;4781;48.776;9.200;2023-05-16T12:10:19;11.90;99.90
9486;DHT22;4781;48.776;9.200;2023-05-16T12:12:49;11.80;99.90
9486;DHT22;4781;48.776;9.200;2023-05-16T12:15:18;11.80;99.90
9486;DHT22;4781;48.776;9.200;2023-05-16T12:17:46;11.80;99.90
9486;DHT22;4781;48.776;9.200;2023-05-16T12:20:14;11.80;99.90
9486;DHT22;4781;48.776;9.200;2023-05-16T12:22:43;11.80;99.90
9486;DHT22;4781;48.776;9.200;2023-05-16T12:28:00;11.80;99.90
9486;DHT22;4781;48.776;9.200;2023-05-16T12:30:25;11.90;99.90
9486;DHT22;4781;48.776;9.200;2023-05-16T12:33:06;11.90;99.90
9486;DHT22;4781;48.776;9.200;2023-05-16T12:35:33;11.90;99.90
9486;DHT22;4781;48.776;9.200;2023-05-16T12:38:03;11.90;99.90
9486;DHT22;4781;48.776;9.200;2023-05-16T12:40:31;11.90;99.90
9486;DHT22;4781;48.776;9.200;2023-05-16T12:42:58;12.00;99.90
9486;DHT22;4781;48.776;9.200;2023-05-16T12:45:27;11.90;99.90
9486;DHT22;4781;48.776;9.200;2023-05-16T12:47:54;11.90;99.90
9486;DHT22;4781;48.776;9.200;2023-05-16T12:50:22;12.00;99.90
9486;DHT22;4781;48.776;9.200;2023-05-16T12:52:53;12.00;99.90
9486;DHT22;4781;48.776;9.200;2023-05-16T12:55:22;12.00;99.90
9486;DHT22;4781;48.776;9.200;2023-05-16T12:57:50;12.00;99.90
9486;DHT22;4781;48.776;9.200;2023-05-16T13:00:19;12.00;99.90
9486;DHT22;4781;48.776;9.200;2023-05-16T13:02:47;12.10;99.90
9486;DHT22;4781;48.776;9.200;2023-05-16T13:05:15;12.10;99.90
9486;DHT22;4781;48.776;9.200;2023-05-16T13:07:43;12.10;99.90
9486;DHT22;4781;48.776;9.200;2023-05-16T13:10:11;12.10;99.90
9486;DHT22;4781;48.776;9.200;2023-05-16T13:12:40;12.00;99.90
9486;DHT22;4781;48.776;9.200;2023-05-16T13:15:09;12.00;99.90
9486;DHT22;4781;48.776;9.200;2023-05-16T13:17:40;11.90;99.90
9486;DHT22;4781;48.776;9.200;2023-05-16T13:20:10;11.90;99.90
9486;DHT22;4781;48.776;9.200;2023-05-16T13:22:41;11.90;99.90
9486;DHT22;4781;48.776;9.200;2023-05-16T13:25:10;11.80;99.90
9486;DHT22;4781;48.776;9.200;2023-05-16T13:27:37;11.80;99.90
9486;DHT22;4781;48.776;9.200;2023-05-16T13:30:05;11.80;99.90
9486;DHT22;4781;48.776;9.200;2023-05-16T13:32:33;11.80;99.90
9486;DHT22;4781;48.776;9.200;2023-05-16T13:35:01;11.70;99.90
9486;DHT22;4781;48.776;9.200;2023-05-16T13:37:29;11.70;99.90
9486;DHT22;4781;48.776;9.200;2023-05-16T13:39:57;11.70;99.90
9486;DHT22;4781;48.776;9.200;2023-05-16T13:42:25;11.80;99.90
9486;DHT22;4781;48.776;9.200;2023-05-16T13:44:52;11.80;99.90
9486;DHT22;4781;48.776;9.200;2023-05-16T13:47:20;11.80;99.90
9486;DHT22;4781;48.776;9.200;2023-05-16T13:49:48;11.80;99.90
9486;DHT22;4781;48.776;9.200;2023-05-16T13:52:16;11.80;99.90
9486;DHT22;4781;48.776;9.200;2023-05-16T13:54:43;11.80;99.90
9486;DHT22;4781;48.776;9.200;2023-05-16T13:57:11;11.80;99.90
9486;DHT22;4781;48.776;9.200;2023-05-16T13:59:39;11.80;99.90
9486;DHT22;4781;48.776;9.200;2023-05-16T14:02:06;11.80;99.90
9486;DHT22;4781;48.776;9.200;2023-05-16T14:04:34;11.80;99.90
9486;DHT22;4781;48.776;9.200;2023-05-16T14:07:01;11.80;99.90
9486;DHT22;4781;48.776;9.200;2023-05-16T14:09:29;11.70;99.90
9486;DHT22;4781;48.776;9.200;2023-05-16T14:11:58;11.70;99.90
9486;DHT22;4781;48.776;9.200;2023-05-16T14:14:28;11.70;99.90
9486;DHT22;4781;48.776;9.200;2023-05-16T14:16:55;11.70;99.90
9486;DHT22;4781;48.776;9.200;2023-05-16T14:19:23;11.70;99.90
9486;DHT22;4781;48.776;9.200;2023-05-16T14:21:50;11.70;99.90
9486;DHT22;4781;48.776;9.200;2023-05-16T14:24:18;11.70;99.90
9486;DHT22;4781;48.776;9.200;2023-05-16T14:26:46;11.70;99.90
9486;DHT22;4781;48.776;9.200;2023-05-16T14:29:13;11.70;99.90
9486;DHT22;4781;48.776;9.200;2023-05-16T14:31:41;11.70;99.90
9486;DHT22;4781;48.776;9.200;2023-05-16T14:34:08;11.70;99.90
9486;DHT22;4781;48.776;9.200;2023-05-16T14:36:36;11.70;99.90
9486;DHT22;4781;48.776;9.200;2023-05-16T14:39:04;11.70;99.90
9486;DHT22;4781;48.776;9.200;2023-05-16T14:41:31;11.70;99.90
9486;DHT22;4781;48.776;9.200;2023-05-16T14:43:59;11.70;99.90
9486;DHT22;4781;48.776;9.200;2023-05-16T14:46:27;11.70;99.90
9486;DHT22;4781;48.776;9.200;2023-05-16T14:48:54;11.70;99.90
9486;DHT22;4781;48.776;9.200;2023-05-16T14:51:22;11.70;99.90
9486;DHT22;4781;48.776;9.200;2023-05-16T14:53:49;11.80;99.90
9486;DHT22;4781;48.776;9.200;2023-05-16T14:56:17;11.80;99.90
9486;DHT22;4781;48.776;9.200;2023-05-16T14:58:45;11.90;99.90
9486;DHT22;4781;48.776;9.200;2023-05-16T15:01:12;12.00;99.90
9486;DHT22;4781;48.776;9.200;2023-05-16T15:03:41;12.00;99.90
9486;DHT22;4781;48.776;9.200;2023-05-16T15:06:09;12.00;99.90
9486;DHT22;4781;48.776;9.200;2023-05-16T15:08:37;12.00;99.90
9486;DHT22;4781;48.776;9.200;2023-05-16T15:11:04;12.10;99.90
9486;DHT22;4781;48.776;9.200;2023-05-16T15:13:32;12.10;99.90
9486;DHT22;4781;48.776;9.200;2023-05-16T15:15:59;12.10;99.90
9486;DHT22;4781;48.776;9.200;2023-05-16T15:18:27;12.10;99.90
9486;DHT22;4781;48.776;9.200;2023-05-16T15:20:55;12.20;99.90
9486;DHT22;4781;48.776;9.200;2023-05-16T15:23:22;12.20;99.90
9486;DHT22;4781;48.776;9.200;2023-05-16T15:25:50;12.30;99.90
9486;DHT22;4781;48.776;9.200;2023-05-16T15:28:18;12.30;99.90
9486;DHT22;4781;48.776;9.200;2023-05-16T15:30:46;12.30;99.90
9486;DHT22;4781;48.776;9.200;2023-05-16T15:33:13;12.40;99.90
9486;DHT22;4781;48.776;9.200;2023-05-16T15:35:41;12.40;99.90
9486;DHT22;4781;48.776;9.200;2023-05-16T15:38:08;12.40;99.90
9486;DHT22;4781;48.776;9.200;2023-05-16T15:40:36;12.40;99.90
9486;DHT22;4781;48.776;9.200;2023-05-16T15:43:04;12.50;99.90
9486;DHT22;4781;48.776;9.200;2023-05-16T15:45:32;12.50;99.90
9486;DHT22;4781;48.776;9.200;2023-05-16T15:48:00;12.60;99.90
9486;DHT22;4781;48.776;9.200;2023-05-16T15:50:28;12.70;99.90
9486;DHT22;4781;48.776;9.200;2023-05-16T15:52:56;12.80;99.90
9486;DHT22;4781;48.776;9.200;2023-05-16T15:55:23;12.90;99.90
9486;DHT22;4781;48.776;9.200;2023-05-16T15:57:51;12.90;99.90
9486;DHT22;4781;48.776;9.200;2023-05-16T16:00:20;12.90;99.90
9486;DHT22;4781;48.776;9.200;2023-05-16T16:02:48;12.90;99.90
9486;DHT22;4781;48.776;9.200;2023-05-16T16:05:16;12.80;99.90
9486;DHT22;4781;48.776;9.200;2023-05-16T16:07:43;12.70;99.90
9486;DHT22;4781;48.776;9.200;2023-05-16T16:10:11;12.70;99.90
9486;DHT22;4781;48.776;9.200;2023-05-16T16:12:39;12.60;99.90
9486;DHT22;4781;48.776;9.200;2023-05-16T16:15:09;12.60;99.90
9486;DHT22;4781;48.776;9.200;2023-05-16T16:17:37;12.60;99.90
9486;DHT22;4781;48.776;9.200;2023-05-16T16:20:05;12.50;99.90
9486;DHT22;4781;48.776;9.200;2023-05-16T16:22:32;12.50;99.90
9486;DHT22;4781;48.776;9.200;2023-05-16T16:25:00;12.40;99.90
9486;DHT22;4781;48.776;9.200;2023-05-16T16:27:28;12.40;99.90
9486;DHT22;4781;48.776;9.200;2023-05-16T16:29:56;12.40;99.90
9486;DHT22;4781;48.776;9.200;2023-05-16T16:32:23;12.40;99.90
9486;DHT22;4781;48.776;9.200;2023-05-16T16:34:51;12.40;99.90